createdAt,value
2022-10-17T00:01:16.989Z,43.27
2022-10-17T00:04:02.685Z,43.16
2022-10-17T00:06:48.382Z,43.29
2022-10-17T00:09:34.219Z,43.36
2022-10-17T00:12:19.938Z,43.39
2022-10-17T00:15:07.248Z,43.38
2022-10-17T00:17:53.111Z,43.23
2022-10-17T00:20:39.033Z,43.43
2022-10-17T00:23:27.471Z,43.37
2022-10-17T00:26:13.421Z,43.52
2022-10-17T00:28:59.276Z,43.19
2022-10-17T00:31:45.336Z,43.62
2022-10-17T00:34:31.233Z,43.46
2022-10-17T00:37:17.253Z,43.56
2022-10-17T00:40:04.035Z,43.39
2022-10-17T00:42:53.065Z,43.44
2022-10-17T00:45:39.062Z,43.55
2022-10-17T00:48:26.096Z,43.59
2022-10-17T00:51:11.774Z,43.44
2022-10-17T00:54:00.410Z,43.74
2022-10-17T00:56:47.230Z,43.46
2022-10-17T00:59:34.580Z,43.61
2022-10-17T01:02:22.224Z,43.84
2022-10-17T01:05:09.906Z,43.63
2022-10-17T01:07:56.447Z,43.67
2022-10-17T01:11:12.829Z,44.06
2022-10-17T01:14:04.440Z,43.69
2022-10-17T01:16:57.258Z,43.83
2022-10-17T01:20:07.394Z,43.67
2022-10-17T01:23:05.339Z,43.72
2022-10-17T01:26:13.039Z,44.05
2022-10-17T01:29:37.499Z,43.77
2022-10-17T01:32:34.672Z,43.96
2022-10-17T01:35:32.830Z,43.83
2022-10-17T01:38:25.433Z,44.17
2022-10-17T01:41:39.938Z,44.07
2022-10-17T01:44:46.633Z,44.14
2022-10-17T01:47:33.872Z,44.07
2022-10-17T01:50:26.281Z,43.81
2022-10-17T01:53:15.970Z,43.99
2022-10-17T01:56:03.472Z,44.19
2022-10-17T01:58:57.268Z,44.14
2022-10-17T02:01:43.681Z,44.57
2022-10-17T02:04:29.897Z,43.85
2022-10-17T02:07:16.387Z,44.03
2022-10-17T02:10:09.158Z,44.31
2022-10-17T02:13:21.478Z,44.41
2022-10-17T02:16:22.602Z,44.07
2022-10-17T02:19:28.441Z,44.05
2022-10-17T02:22:33.076Z,44.39
2022-10-17T02:25:49.251Z,44.74
2022-10-17T02:28:47.904Z,44.03
2022-10-17T02:31:42.121Z,44.70
2022-10-17T02:34:36.082Z,44.29
2022-10-17T02:37:25.930Z,44.29
2022-10-17T02:40:14.433Z,44.32
2022-10-17T02:43:01.108Z,44.43
2022-10-17T02:45:48.738Z,44.54
2022-10-17T02:48:39.130Z,44.50
2022-10-17T02:51:37.329Z,44.56
2022-10-17T02:54:42.025Z,44.50
2022-10-17T02:57:31.036Z,44.82
2022-10-17T03:00:17.982Z,44.40
2022-10-17T03:03:20.017Z,44.64
2022-10-17T03:06:05.778Z,44.83
2022-10-17T03:08:51.688Z,44.53
2022-10-17T03:11:37.753Z,44.64
2022-10-17T03:14:25.729Z,44.80
2022-10-17T03:17:11.700Z,44.64
2022-10-17T03:19:58.564Z,44.63
2022-10-17T03:22:44.466Z,44.75
2022-10-17T03:25:30.517Z,44.59
2022-10-17T03:28:17.096Z,44.73
2022-10-17T03:31:15.132Z,44.67
2022-10-17T03:34:03.128Z,44.50
2022-10-17T03:36:49.367Z,44.97
2022-10-17T03:39:35.255Z,44.47
2022-10-17T03:42:21.541Z,44.59
2022-10-17T03:45:08.219Z,44.94
2022-10-17T03:47:55.080Z,44.85
2022-10-17T03:50:40.811Z,44.87
2022-10-17T03:53:28.603Z,44.44
2022-10-17T03:56:18.150Z,44.63
2022-10-17T03:59:14.305Z,44.88
2022-10-17T04:02:02.449Z,44.55
2022-10-17T04:04:48.465Z,44.45
2022-10-17T04:07:38.391Z,44.57
2022-10-17T04:10:25.221Z,44.67
2022-10-17T04:13:10.930Z,44.81
2022-10-17T04:16:05.428Z,44.69
2022-10-17T04:18:56.507Z,44.61
2022-10-17T04:21:44.587Z,44.47
2022-10-17T04:24:30.334Z,44.54
2022-10-17T04:27:30.701Z,44.71
2022-10-17T04:30:17.499Z,44.53
2022-10-17T04:33:04.059Z,44.59
2022-10-17T04:36:08.105Z,45.20
2022-10-17T04:38:54.841Z,45.10
2022-10-17T04:41:40.656Z,44.95
2022-10-17T04:44:26.991Z,44.62
2022-10-17T04:47:12.775Z,45.00
2022-10-17T04:49:58.534Z,44.64
2022-10-17T04:52:44.583Z,44.81
2022-10-17T04:55:31.485Z,44.62
2022-10-17T04:58:17.491Z,44.80
2022-10-17T05:01:08.081Z,44.94
2022-10-17T05:03:56.024Z,44.71
2022-10-17T05:06:42.234Z,44.97
2022-10-17T05:10:03.839Z,44.72
2022-10-17T05:12:51.306Z,44.90
2022-10-17T05:15:40.017Z,45.04
2022-10-17T05:18:25.933Z,44.72
2022-10-17T05:21:12.059Z,45.12
2022-10-17T05:23:58.274Z,45.01
2022-10-17T05:26:44.326Z,44.92
2022-10-17T05:29:31.090Z,44.83
2022-10-17T05:32:25.500Z,44.79
2022-10-17T05:35:11.237Z,44.76
2022-10-17T05:37:58.376Z,44.96
2022-10-17T05:40:44.597Z,44.97
2022-10-17T05:43:31.286Z,44.93
2022-10-17T05:46:18.204Z,44.78
2022-10-17T05:49:14.718Z,44.58
2022-10-17T05:52:09.843Z,44.74
2022-10-17T05:55:10.062Z,45.04
2022-10-17T05:57:56.513Z,44.95
2022-10-17T06:00:44.260Z,44.94
2022-10-17T06:03:30.762Z,44.90
2022-10-17T06:06:18.571Z,44.58
2022-10-17T06:09:06.294Z,44.98
2022-10-17T06:11:55.546Z,44.85
2022-10-17T06:14:41.295Z,44.79
2022-10-17T06:17:28.219Z,44.85
2022-10-17T06:20:14.469Z,44.86
2022-10-17T06:23:00.518Z,44.83
2022-10-17T06:26:03.199Z,44.71
2022-10-17T06:28:49.537Z,44.91
2022-10-17T06:31:35.474Z,44.89
2022-10-17T06:34:21.709Z,44.89
2022-10-17T06:37:08.037Z,44.90
2022-10-17T06:39:56.305Z,44.83
2022-10-17T06:42:43.040Z,44.61
2022-10-17T06:46:05.092Z,44.77
2022-10-17T06:48:56.229Z,44.76
2022-10-17T06:52:01.215Z,44.73
2022-10-17T06:58:12.829Z,44.62
2022-10-17T07:01:14.934Z,44.60
2022-10-17T07:04:03.248Z,44.77
2022-10-17T07:06:50.383Z,44.60
2022-10-17T07:09:40.143Z,44.64
2022-10-17T07:12:27.064Z,44.67
2022-10-17T07:15:13.320Z,44.56
2022-10-17T07:17:59.522Z,44.62
2022-10-17T07:20:53.288Z,44.75
2022-10-17T07:23:39.957Z,44.34
2022-10-17T07:26:25.967Z,44.65
2022-10-17T07:29:12.374Z,44.39
2022-10-17T07:32:08.630Z,44.37
2022-10-17T07:34:54.559Z,44.46
2022-10-17T07:37:40.769Z,44.54
2022-10-17T07:40:26.591Z,44.17
2022-10-17T07:43:12.415Z,44.34
2022-10-17T07:45:58.094Z,44.14
2022-10-17T07:48:44.332Z,44.25
2022-10-17T07:51:30.150Z,43.92
2022-10-17T07:54:15.970Z,44.11
2022-10-17T07:57:01.941Z,44.09
2022-10-17T07:59:48.314Z,43.92
2022-10-17T08:02:34.379Z,44.12
2022-10-17T08:05:20.237Z,44.07
2022-10-17T08:08:06.086Z,44.22
2022-10-17T08:10:51.958Z,44.11
2022-10-17T08:13:37.730Z,44.21
2022-10-17T08:16:23.521Z,44.20
2022-10-17T08:19:11.438Z,44.42
2022-10-17T08:21:58.426Z,44.42
2022-10-17T08:24:45.403Z,44.49
2022-10-17T08:27:33.678Z,44.63
2022-10-17T08:30:19.323Z,44.87
2022-10-17T08:33:05.104Z,44.96
2022-10-17T08:35:50.787Z,44.63
2022-10-17T08:38:38.514Z,44.76
2022-10-17T08:41:42.847Z,44.73
2022-10-17T08:44:48.340Z,45.03
2022-10-17T08:47:40.234Z,44.71
2022-10-17T08:50:42.969Z,44.95
2022-10-17T08:53:49.315Z,45.09
2022-10-17T08:56:48.456Z,44.74
2022-10-17T08:59:35.146Z,44.99
2022-10-17T09:02:41.255Z,44.84
2022-10-17T09:05:28.513Z,44.80
2022-10-17T09:08:35.390Z,44.70
2022-10-17T09:11:52.635Z,45.04
2022-10-17T09:14:43.133Z,44.56
2022-10-17T09:17:41.425Z,44.80
2022-10-17T09:20:45.362Z,44.44
2022-10-17T09:23:46.808Z,44.33
2022-10-17T09:26:32.675Z,44.48
2022-10-17T09:29:23.819Z,44.09
2022-10-17T09:32:23.002Z,44.28
2022-10-17T09:35:15.394Z,44.04
2022-10-17T09:38:01.236Z,44.05
2022-10-17T10:34:22.195Z,44.47
2022-10-17T10:37:23.784Z,44.17
2022-10-17T10:40:18.974Z,44.20
2022-10-17T10:43:06.140Z,43.75
2022-10-17T10:45:52.683Z,43.51
2022-10-17T10:48:54.402Z,43.27
2022-10-17T10:51:43.869Z,43.04
2022-10-17T10:54:34.805Z,42.71
2022-10-17T10:57:21.756Z,42.40
2022-10-17T11:00:17.604Z,42.27
2022-10-17T11:03:16.738Z,41.93
2022-10-17T11:06:13.346Z,41.63
2022-10-17T11:09:33.900Z,41.31
2022-10-17T11:12:28.210Z,41.02
2022-10-17T11:15:22.362Z,40.56
2022-10-17T11:18:26.891Z,40.30
2022-10-17T11:21:23.934Z,39.27
2022-10-17T11:24:26.738Z,38.24
2022-10-17T11:27:19.148Z,37.75
2022-10-17T11:30:07.168Z,37.22
2022-10-17T11:32:59.066Z,36.68
2022-10-17T11:35:46.556Z,36.21
2022-10-17T11:38:53.046Z,36.00
2022-10-17T11:41:47.298Z,35.63
2022-10-17T11:44:37.623Z,34.89
2022-10-17T11:47:54.244Z,34.86
2022-10-17T11:53:57.077Z,34.39
2022-10-17T11:57:32.861Z,33.90
2022-10-17T12:00:46.149Z,33.74
2022-10-17T12:03:45.761Z,33.37
2022-10-17T12:06:40.346Z,33.40
2022-10-17T12:09:26.190Z,33.05
2022-10-17T12:12:25.505Z,32.52
2022-10-17T12:15:14.425Z,32.44
2022-10-17T12:18:04.163Z,32.26
2022-10-17T12:20:59.982Z,31.69
2022-10-17T12:23:54.916Z,31.63
2022-10-17T12:26:41.044Z,31.17
2022-10-17T12:29:29.272Z,31.00
2022-10-17T12:32:16.577Z,30.25
2022-10-17T12:35:02.547Z,30.24
2022-10-17T12:37:48.572Z,29.83
2022-10-17T12:40:37.280Z,29.17
2022-10-17T12:43:29.205Z,28.84
2022-10-17T12:46:46.748Z,28.30
2022-10-17T12:49:54.368Z,28.11
2022-10-17T12:52:40.219Z,27.45
2022-10-17T12:55:26.119Z,26.83
2022-10-17T12:58:14.898Z,26.75
2022-10-17T13:04:10.032Z,25.76
2022-10-17T13:06:58.663Z,25.66
2022-10-17T13:09:45.203Z,25.51
2022-10-17T13:12:34.049Z,25.04
2022-10-17T13:15:22.792Z,24.76
2022-10-17T13:18:19.213Z,24.49
2022-10-17T13:21:13.839Z,24.36
2022-10-17T13:24:01.218Z,23.97
2022-10-17T13:26:47.057Z,24.05
2022-10-17T13:29:33.313Z,23.69
2022-10-17T13:32:19.389Z,23.64
2022-10-17T13:35:09.900Z,23.64
2022-10-17T13:37:56.241Z,23.45
2022-10-17T13:40:49.945Z,23.76
2022-10-17T13:43:36.559Z,23.49
2022-10-17T13:46:37.824Z,23.58
2022-10-17T13:49:34.798Z,23.46
2022-10-17T13:52:23.703Z,23.50
2022-10-17T13:55:17.612Z,23.48
2022-10-17T13:58:15.175Z,23.95
2022-10-17T14:01:01.225Z,24.19
2022-10-17T14:03:49.856Z,24.03
2022-10-17T14:06:47.603Z,24.30
2022-10-17T14:09:36.833Z,24.64
2022-10-17T14:12:22.742Z,24.92
2022-10-17T14:15:13.974Z,24.84
2022-10-17T14:18:07.543Z,25.58
2022-10-17T14:21:32.135Z,25.88
2022-10-17T14:24:23.841Z,26.29
2022-10-17T14:27:29.056Z,26.65
2022-10-17T14:30:55.338Z,27.09
2022-10-17T14:33:46.869Z,27.90
2022-10-17T14:36:38.890Z,28.03
2022-10-17T14:39:26.405Z,28.46
2022-10-17T14:42:20.522Z,28.72
2022-10-17T14:45:11.312Z,28.72
2022-10-17T14:48:10.436Z,29.16
2022-10-17T14:51:17.500Z,29.00
2022-10-17T14:54:30.623Z,29.21
2022-10-17T14:57:25.593Z,29.60
2022-10-17T15:00:19.081Z,29.68
2022-10-17T15:03:05.076Z,30.02
2022-10-17T15:05:51.818Z,30.09
2022-10-17T15:08:37.657Z,30.01
2022-10-17T15:11:23.612Z,30.07
2022-10-17T15:14:09.687Z,30.19
2022-10-17T15:16:55.455Z,30.23
2022-10-17T15:19:41.424Z,30.33
2022-10-17T15:22:27.794Z,30.48
2022-10-17T15:25:14.198Z,30.48
2022-10-17T15:28:00.179Z,30.58
2022-10-17T15:30:45.896Z,30.74
2022-10-17T15:33:31.667Z,30.89
2022-10-17T15:36:25.888Z,30.86
2022-10-17T15:39:12.070Z,30.83
2022-10-17T15:41:59.202Z,30.98
2022-10-17T15:44:49.476Z,31.03
2022-10-17T15:47:35.842Z,31.05
2022-10-17T15:50:21.940Z,31.09
2022-10-17T15:53:12.059Z,31.11
2022-10-17T15:55:59.142Z,31.42
2022-10-17T15:58:44.866Z,31.38
2022-10-17T16:01:31.766Z,31.36
2022-10-17T16:04:18.557Z,31.52
2022-10-17T16:07:04.606Z,31.51
2022-10-17T16:09:50.583Z,31.74
2022-10-17T16:12:41.224Z,31.81
2022-10-17T16:15:28.201Z,31.92
2022-10-17T16:18:14.372Z,31.94
2022-10-17T16:21:00.161Z,32.15
2022-10-17T16:23:46.053Z,32.19
2022-10-17T16:26:32.210Z,32.22
2022-10-17T16:29:18.074Z,32.22
2022-10-17T16:32:07.190Z,32.57
2022-10-17T16:34:53.157Z,32.42
2022-10-17T16:37:38.855Z,32.42
2022-10-17T16:40:24.613Z,32.64
2022-10-17T16:43:12.869Z,32.68
2022-10-17T16:45:58.946Z,32.72
2022-10-17T16:48:45.614Z,32.87
2022-10-17T16:51:33.726Z,32.84
2022-10-17T16:54:19.697Z,32.97
2022-10-17T16:57:06.204Z,33.19
2022-10-17T16:59:52.682Z,33.17
2022-10-17T17:02:38.914Z,32.98
2022-10-17T17:05:24.872Z,33.21
2022-10-17T17:08:12.650Z,33.13
2022-10-17T17:10:59.275Z,33.13
2022-10-17T17:13:45.117Z,33.30
2022-10-17T17:16:32.710Z,33.41
2022-10-17T17:19:21.906Z,33.50
2022-10-17T17:22:08.078Z,33.65
2022-10-17T17:24:54.095Z,33.67
2022-10-17T17:27:39.885Z,33.45
2022-10-17T17:30:25.566Z,33.79
2022-10-17T17:33:12.421Z,33.81
2022-10-17T17:36:01.239Z,33.65
2022-10-17T17:38:50.345Z,33.75
2022-10-17T17:41:36.511Z,34.19
2022-10-17T17:44:22.510Z,33.87
2022-10-17T17:47:08.235Z,34.03
2022-10-17T17:49:54.042Z,34.12
2022-10-17T17:52:42.177Z,34.34
2022-10-17T17:55:28.206Z,34.37
2022-10-17T17:58:21.512Z,34.23
2022-10-17T18:01:14.846Z,34.64
2022-10-17T18:04:00.831Z,34.62
2022-10-17T18:06:46.738Z,34.65
2022-10-17T18:09:32.516Z,34.32
2022-10-17T18:12:18.308Z,34.69
2022-10-17T18:15:05.170Z,34.54
2022-10-17T18:17:50.828Z,34.72
2022-10-17T18:20:43.294Z,34.98
2022-10-17T18:23:29.222Z,35.12
2022-10-17T18:26:16.076Z,34.88
2022-10-17T18:29:02.349Z,34.80
2022-10-17T18:31:48.543Z,34.88
2022-10-17T18:34:34.195Z,35.09
2022-10-17T18:37:20.024Z,35.44
2022-10-17T18:40:06.616Z,35.09
2022-10-17T18:42:52.674Z,35.15
2022-10-17T18:45:38.710Z,35.39
2022-10-17T18:48:25.117Z,35.22
2022-10-17T18:51:10.879Z,35.57
2022-10-17T18:53:58.764Z,35.71
2022-10-17T18:56:45.459Z,35.92
2022-10-17T18:59:31.147Z,35.58
2022-10-17T19:02:17.085Z,35.65
2022-10-17T19:05:03.370Z,35.95
2022-10-17T19:07:50.318Z,35.95
2022-10-17T19:10:37.640Z,35.80
2022-10-17T19:13:23.877Z,35.73
2022-10-17T19:16:35.537Z,36.02
2022-10-17T19:19:24.134Z,36.05
2022-10-17T19:22:09.925Z,36.05
2022-10-17T19:24:55.827Z,35.97
2022-10-17T19:27:41.817Z,35.94
2022-10-17T19:30:28.073Z,36.26
2022-10-17T19:33:14.403Z,36.29
2022-10-17T19:36:03.481Z,36.22
2022-10-17T19:38:49.553Z,36.52
2022-10-17T19:41:36.480Z,36.30
2022-10-17T19:44:22.699Z,36.53
2022-10-17T19:47:08.778Z,36.43
2022-10-17T19:49:54.597Z,36.32
2022-10-17T19:52:40.350Z,36.50
2022-10-17T19:55:26.078Z,36.45
2022-10-17T19:58:12.011Z,36.42
2022-10-17T20:01:01.247Z,36.80
2022-10-17T20:03:47.582Z,36.72
2022-10-17T20:06:34.223Z,36.73
2022-10-17T20:09:20.072Z,36.81
2022-10-17T20:12:06.122Z,36.54
2022-10-17T20:14:51.914Z,36.88
2022-10-17T20:17:37.982Z,36.75
2022-10-17T20:20:24.143Z,37.00
2022-10-17T20:23:10.451Z,37.02
2022-10-17T20:26:13.500Z,37.21
2022-10-17T20:29:08.907Z,37.14
2022-10-17T20:31:54.912Z,37.13
2022-10-17T20:34:41.925Z,37.17
2022-10-17T20:37:27.906Z,37.14
2022-10-17T20:40:34.021Z,37.25
2022-10-17T20:43:19.932Z,37.28
2022-10-17T20:46:22.956Z,37.31
2022-10-17T20:49:15.069Z,37.35
2022-10-17T20:52:01.618Z,37.31
2022-10-17T20:54:47.449Z,37.25
2022-10-17T20:57:33.469Z,37.23
2022-10-17T21:00:19.278Z,37.43
2022-10-17T21:03:06.155Z,37.39
2022-10-17T21:05:51.927Z,37.42
2022-10-17T21:08:37.779Z,37.88
2022-10-17T21:11:26.185Z,37.49
2022-10-17T21:14:12.587Z,37.70
2022-10-17T21:17:02.385Z,37.53
2022-10-17T21:19:50.746Z,37.84
2022-10-17T21:22:36.769Z,37.61
2022-10-17T21:25:22.645Z,38.00
2022-10-17T21:28:08.334Z,37.96
2022-10-17T21:30:54.152Z,37.87
2022-10-17T21:33:40.987Z,37.84
2022-10-17T21:36:27.865Z,37.91
2022-10-17T21:39:14.835Z,38.23
2022-10-17T21:42:00.936Z,37.95
2022-10-17T21:44:46.617Z,38.32
2022-10-17T21:47:32.475Z,38.32
2022-10-17T21:50:18.309Z,38.23
2022-10-17T21:53:04.202Z,38.00
2022-10-17T21:55:49.853Z,38.21
2022-10-17T21:58:35.587Z,38.52
2022-10-17T22:01:29.110Z,38.48
2022-10-17T22:04:17.037Z,38.52
2022-10-17T22:07:03.090Z,38.14
2022-10-17T22:09:48.794Z,38.12
2022-10-17T22:12:34.483Z,38.66
2022-10-17T22:15:20.256Z,38.71
2022-10-17T22:18:05.835Z,38.64
2022-10-17T22:20:51.595Z,38.62
2022-10-17T22:23:38.324Z,38.29
2022-10-17T22:26:24.152Z,38.73
2022-10-17T22:29:10.520Z,38.52
2022-10-17T22:31:56.633Z,38.55
2022-10-17T22:34:42.448Z,38.86
2022-10-17T22:37:28.334Z,38.71
2022-10-17T22:40:14.658Z,38.64
2022-10-17T22:43:00.745Z,38.88
2022-10-17T22:45:54.325Z,39.27
2022-10-17T22:48:40.083Z,38.75
2022-10-17T22:51:26.257Z,38.76
2022-10-17T22:54:12.348Z,38.54
2022-10-17T22:56:58.298Z,39.30
2022-10-17T22:59:44.001Z,39.13
2022-10-17T23:02:30.269Z,38.72
2022-10-17T23:05:16.214Z,39.14
2022-10-17T23:08:02.064Z,39.07
2022-10-17T23:10:48.089Z,38.83
2022-10-17T23:13:34.133Z,38.69
2022-10-17T23:16:19.975Z,39.13
2022-10-17T23:19:05.708Z,39.25
2022-10-17T23:21:51.434Z,39.68
2022-10-17T23:24:37.153Z,39.09
2022-10-17T23:27:23.002Z,39.49
2022-10-17T23:30:09.468Z,39.35
2022-10-17T23:32:55.214Z,39.03
2022-10-17T23:35:41.809Z,39.19
2022-10-17T23:38:27.549Z,39.31
2022-10-17T23:41:13.575Z,39.39
2022-10-17T23:44:00.121Z,39.61
2022-10-17T23:46:46.634Z,39.62
2022-10-17T23:49:32.684Z,39.75
2022-10-17T23:52:18.708Z,39.50
2022-10-17T23:55:04.906Z,39.32
2022-10-17T23:57:50.596Z,39.73
